Cross Lake Township, Maine
Current Conditions -  °F | °C
As of 9:53 AM on Sunday 23 Nov 2014 (Local Time) from KFVE Reporting Station
Overcast Overcast  
Wind Chill: 25°   Ceiling: 4100
Heat Index: 33°   Visibility: 10mi
Dew Point: 29°   Wind: 10mph
Humidity: 85%   Direction: 250°WSW
Pressure: 29.94"   Gusts: NA
Location:  47.1619°N, 68.2532°W
Report Text: KFVE 231453Z AUTO 25009KT 10SM OVC041 01/M02 A2994 RMK AO2 SLP149 T00061017 53028
Loading
Personal Weather Stations






























Interactive Weather Map New forecast layout! Learn more

10-Day Weather Forecast

Advertisements
Track Severe Weather on mobile